createdAt,value
2022-10-04T00:00:16.899Z,10.14
2022-10-04T00:01:17.137Z,10.11
2022-10-04T00:02:17.340Z,10.02
2022-10-04T00:03:17.111Z,10.03
2022-10-04T00:04:16.872Z,10.15
2022-10-04T00:05:16.867Z,10.1
2022-10-04T00:06:16.831Z,10.03
2022-10-04T00:07:16.811Z,10.15
2022-10-04T00:08:16.797Z,10.17
2022-10-04T00:09:17.041Z,10.05
2022-10-04T00:10:17.041Z,10.1
2022-10-04T00:11:17.025Z,9.98
2022-10-04T00:12:16.775Z,10.02
2022-10-04T00:13:16.990Z,10.03
2022-10-04T00:14:16.979Z,10.02
2022-10-04T00:15:16.459Z,9.99
2022-10-04T00:16:16.824Z,10.02
2022-10-04T00:17:16.942Z,10.13
2022-10-04T00:18:16.721Z,10
2022-10-04T00:19:16.675Z,10.11
2022-10-04T00:20:16.649Z,10.02
2022-10-04T00:21:16.920Z,10.02
2022-10-04T00:22:16.883Z,10.18
2022-10-04T00:23:16.873Z,10.07
2022-10-04T00:24:16.854Z,10.13
2022-10-04T00:25:16.849Z,9.98
2022-10-04T00:26:16.577Z,9.99
2022-10-04T00:27:16.817Z,10.05
2022-10-04T00:28:16.786Z,9.96
2022-10-04T00:29:16.540Z,9.95
2022-10-04T00:30:16.779Z,10.1
2022-10-04T00:31:17.079Z,10.08
2022-10-04T00:32:16.753Z,10.07
2022-10-04T00:33:16.707Z,10.02
2022-10-04T00:34:16.783Z,10.07
2022-10-04T00:35:16.719Z,10.15
2022-10-04T00:36:16.448Z,10.05
2022-10-04T00:37:16.719Z,10
2022-10-04T00:38:16.679Z,9.98
2022-10-04T00:39:16.410Z,10.05
2022-10-04T00:40:16.401Z,10.1
2022-10-04T00:41:16.647Z,10.08
2022-10-04T00:42:16.376Z,10.07
2022-10-04T00:43:16.364Z,10.07
2022-10-04T00:44:16.626Z,10.14
2022-10-04T00:45:16.602Z,10
2022-10-04T00:46:16.504Z,10.11
2022-10-04T00:47:17.334Z,10.02
2022-10-04T00:48:17.071Z,10.02
2022-10-04T00:49:17.316Z,10.11
2022-10-04T00:50:17.355Z,9.98
2022-10-04T00:51:17.038Z,10.15
2022-10-04T00:52:17.023Z,10.14
2022-10-04T00:53:17.036Z,10
2022-10-04T00:54:16.748Z,10.03
2022-10-04T00:55:16.985Z,10.11
2022-10-04T00:56:17.228Z,10.07
2022-10-04T00:57:17.218Z,10.1
2022-10-04T00:58:17.203Z,10.1
2022-10-04T00:59:16.678Z,9.98
2022-10-04T01:00:16.670Z,10.07
2022-10-04T01:01:17.475Z,9.98
2022-10-04T01:02:17.131Z,9.98
2022-10-04T01:03:16.887Z,9.99
2022-10-04T01:04:16.872Z,9.98
2022-10-04T01:05:16.867Z,10.13
2022-10-04T01:06:17.258Z,9.99
2022-10-04T01:07:16.837Z,10.03
2022-10-04T01:08:17.085Z,10
2022-10-04T01:09:17.096Z,10.1
2022-10-04T01:10:16.806Z,9.99
2022-10-04T01:11:16.549Z,10.13
2022-10-04T01:12:17.037Z,10
2022-10-04T01:13:16.503Z,10.02
2022-10-04T01:14:16.752Z,10.13
2022-10-04T01:15:17.017Z,10.03
2022-10-04T01:16:17.252Z,10.05
2022-10-04T01:17:16.727Z,10.07
2022-10-04T01:18:16.441Z,9.98
2022-10-04T01:19:16.699Z,10.02
2022-10-04T01:20:16.929Z,10.07
2022-10-04T01:21:16.917Z,10.07
2022-10-04T01:22:16.700Z,10.08
2022-10-04T01:23:16.381Z,10.11
2022-10-04T01:24:16.639Z,10
2022-10-04T01:25:16.893Z,10.07
2022-10-04T01:26:16.600Z,10.08
2022-10-04T01:27:16.598Z,10.03
2022-10-04T01:28:16.879Z,10.07
2022-10-04T01:29:16.832Z,10.07
2022-10-04T01:30:16.324Z,10.07
2022-10-04T01:31:16.761Z,10.02
2022-10-04T01:32:16.267Z,10.05
2022-10-04T01:34:16.511Z,10.1
2022-10-04T01:35:16.747Z,10.07
2022-10-04T01:36:16.224Z,10.1
2022-10-04T01:37:16.715Z,10.03
2022-10-04T01:38:16.762Z,10.07
2022-10-04T01:39:16.693Z,10.1
2022-10-04T01:40:16.170Z,10
2022-10-04T01:41:16.691Z,10.03
2022-10-04T01:42:16.404Z,10
2022-10-04T01:43:16.651Z,10.08
2022-10-04T01:44:16.119Z,9.96
2022-10-04T01:45:16.109Z,10.02
2022-10-04T01:46:16.628Z,10.07
2022-10-04T01:47:16.339Z,10.02
2022-10-04T01:48:16.330Z,10.08
2022-10-04T01:49:16.567Z,10.02
2022-10-04T01:50:20.150Z,10.02
2022-10-04T01:51:16.298Z,10.05
2022-10-04T01:52:16.533Z,9.99
2022-10-04T01:53:16.272Z,10.02
2022-10-04T01:54:16.555Z,9.99
2022-10-04T01:55:16.493Z,10.02
2022-10-04T01:56:16.485Z,10.08
2022-10-04T01:57:16.496Z,9.95
2022-10-04T01:58:16.204Z,10.08
2022-10-04T01:59:15.934Z,10
2022-10-04T02:00:16.178Z,10.07
2022-10-04T02:01:16.397Z,10.02
2022-10-04T02:02:16.406Z,10.1
2022-10-04T02:03:16.139Z,10.03
2022-10-04T02:04:21.966Z,10.05
2022-10-04T02:05:15.867Z,10.05
2022-10-04T02:06:16.101Z,10.1
2022-10-04T02:07:16.097Z,10.1
2022-10-04T02:08:16.335Z,10.1
2022-10-04T02:09:15.808Z,10.11
2022-10-04T02:10:16.102Z,10.1
2022-10-04T02:11:16.297Z,10.13
2022-10-04T02:12:16.025Z,9.99
2022-10-04T02:13:16.330Z,9.99
2022-10-04T02:14:15.752Z,10.07
2022-10-04T02:15:16.007Z,10.11
2022-10-04T02:16:16.246Z,10.1
2022-10-04T02:17:15.967Z,10.1
2022-10-04T02:18:15.961Z,9.99
2022-10-04T02:19:15.687Z,10.07
2022-10-04T02:20:16.185Z,10.02
2022-10-04T02:21:16.176Z,10.1
2022-10-04T02:22:15.903Z,10
2022-10-04T02:23:15.636Z,10.02
2022-10-04T02:24:16.136Z,10.02
2022-10-04T02:25:15.610Z,9.98
2022-10-04T02:26:15.907Z,9.98
2022-10-04T02:27:16.096Z,9.92
2022-10-04T02:28:16.140Z,9.93
2022-10-04T02:29:16.199Z,9.93
2022-10-04T02:30:15.808Z,9.9
2022-10-04T02:31:16.302Z,9.93
2022-10-04T02:32:16.038Z,9.95
2022-10-04T02:33:15.767Z,9.93
2022-10-04T02:34:15.756Z,9.93
2022-10-04T02:35:15.744Z,9.95
2022-10-04T02:36:15.985Z,9.93
2022-10-04T02:37:15.715Z,9.93
2022-10-04T02:38:15.703Z,9.98
2022-10-04T02:39:15.698Z,9.92
2022-10-04T02:40:15.424Z,9.95
2022-10-04T02:41:15.924Z,9.88
2022-10-04T02:42:15.960Z,9.99
2022-10-04T02:43:15.651Z,9.93
2022-10-04T02:44:15.888Z,9.96
2022-10-04T02:45:15.905Z,9.99
2022-10-04T02:46:16.021Z,10
2022-10-04T02:47:15.591Z,9.96
2022-10-04T02:48:15.842Z,9.95
2022-10-04T02:49:15.826Z,9.98
2022-10-04T02:50:15.559Z,9.9
2022-10-04T02:51:15.288Z,9.96
2022-10-04T02:52:15.789Z,9.96
2022-10-04T02:53:15.521Z,9.93
2022-10-04T02:54:15.766Z,9.93
2022-10-04T02:55:15.493Z,9.96
2022-10-04T02:56:15.741Z,9.93
2022-10-04T02:57:15.468Z,9.95
2022-10-04T02:58:15.632Z,9.95
2022-10-04T02:59:15.812Z,9.88
2022-10-04T03:00:15.543Z,9.93
2022-10-04T03:01:15.903Z,9.95
2022-10-04T03:02:15.992Z,9.81
2022-10-04T03:03:15.249Z,9.9
2022-10-04T03:04:15.243Z,9.88
2022-10-04T03:05:15.483Z,9.82
2022-10-04T03:06:15.465Z,9.82
2022-10-04T03:07:15.712Z,9.84
2022-10-04T03:08:15.189Z,9.84
2022-10-04T03:09:15.694Z,9.84
2022-10-04T03:10:15.676Z,9.8
2022-10-04T03:11:15.146Z,9.84
2022-10-04T03:12:15.391Z,9.81
2022-10-04T03:13:15.126Z,9.8
2022-10-04T03:14:15.427Z,9.82
2022-10-04T03:15:15.632Z,9.88
2022-10-04T03:16:15.889Z,9.78
2022-10-04T03:17:15.359Z,9.77
2022-10-04T03:18:15.320Z,9.78
2022-10-04T03:19:15.302Z,9.77
2022-10-04T03:20:15.556Z,9.77
2022-10-04T03:21:15.573Z,9.78
2022-10-04T03:22:15.273Z,9.78
2022-10-04T03:23:15.512Z,9.71
2022-10-04T03:24:15.244Z,9.74
2022-10-04T03:25:15.231Z,9.77
2022-10-04T03:26:15.231Z,9.67
2022-10-04T03:27:15.460Z,9.77
2022-10-04T03:28:15.437Z,9.75
2022-10-04T03:29:15.180Z,9.77
2022-10-04T03:30:15.223Z,9.66
2022-10-04T03:31:15.688Z,9.7
2022-10-04T03:32:15.148Z,9.74
2022-10-04T03:49:29.379Z,9.17
2022-10-04T03:50:29.019Z,9.12
2022-10-04T03:51:28.992Z,8.97
2022-10-04T03:52:28.975Z,9.03
2022-10-04T03:53:29.219Z,9.03
2022-10-04T03:54:29.042Z,9
2022-10-04T03:55:29.185Z,8.9
2022-10-04T03:56:29.174Z,8.95
2022-10-04T03:57:29.159Z,8.79
2022-10-04T03:58:28.885Z,8.85
2022-10-04T03:59:28.873Z,8.79
2022-10-04T04:00:28.859Z,8.71
2022-10-04T04:01:29.351Z,8.72
2022-10-04T04:02:28.884Z,8.68
2022-10-04T04:03:29.071Z,8.67
2022-10-04T04:04:28.560Z,8.65
2022-10-04T04:05:29.123Z,8.68
2022-10-04T04:06:28.776Z,8.64
2022-10-04T04:07:28.765Z,8.57
2022-10-04T04:08:28.750Z,8.49
2022-10-04T04:09:28.732Z,8.58
2022-10-04T04:10:28.971Z,8.57
2022-10-04T04:11:28.707Z,8.53
2022-10-04T04:12:28.695Z,8.53
2022-10-04T04:13:28.681Z,8.62
2022-10-04T04:14:28.413Z,8.58
2022-10-04T04:15:28.918Z,8.57
2022-10-04T04:16:28.993Z,8.57
2022-10-04T04:17:28.879Z,8.58
2022-10-04T04:18:28.610Z,8.6
2022-10-04T04:19:28.850Z,8.64
2022-10-04T04:20:28.583Z,8.64
2022-10-04T04:21:28.904Z,8.68
2022-10-04T04:22:28.306Z,8.65
2022-10-04T04:23:28.544Z,8.69
2022-10-04T04:24:28.552Z,8.77
2022-10-04T04:25:28.265Z,8.69
2022-10-04T04:26:28.499Z,8.79
2022-10-04T04:27:33.531Z,8.69
2022-10-04T04:28:28.712Z,8.74
2022-10-04T04:29:28.460Z,8.8
2022-10-04T04:30:28.191Z,8.76
2022-10-04T04:31:28.950Z,8.85
2022-10-04T04:32:28.448Z,8.86
2022-10-04T04:33:28.411Z,8.85
2022-10-04T04:34:28.394Z,8.83
2022-10-04T04:35:28.651Z,8.86
2022-10-04T04:36:28.367Z,8.97
2022-10-04T04:37:28.682Z,8.94
2022-10-04T04:38:28.091Z,9
2022-10-04T04:39:28.328Z,8.89
2022-10-04T04:40:28.573Z,8.95
2022-10-04T04:41:28.304Z,9
2022-10-04T04:42:28.033Z,8.97
2022-10-04T04:43:28.273Z,8.89
2022-10-04T04:44:28.263Z,8.95
2022-10-04T04:45:28.667Z,8.83
2022-10-04T04:46:32.497Z,8.85
2022-10-04T04:47:28.226Z,8.85
2022-10-04T04:48:28.464Z,8.86
2022-10-04T04:49:28.364Z,8.83
2022-10-04T04:50:28.358Z,8.82
2022-10-04T04:51:28.343Z,8.87
2022-10-04T04:52:28.326Z,8.82
2022-10-04T04:53:28.642Z,8.74
2022-10-04T04:54:28.306Z,8.72
2022-10-04T04:55:28.286Z,8.79
2022-10-04T04:56:28.024Z,8.71
2022-10-04T04:57:28.262Z,8.76
2022-10-04T04:58:28.514Z,8.76
2022-10-04T04:59:28.497Z,8.71
2022-10-04T05:00:27.970Z,8.74
2022-10-04T05:01:28.585Z,8.76
2022-10-04T05:02:28.382Z,8.74
2022-10-04T05:03:28.229Z,8.77
2022-10-04T05:04:27.914Z,8.74
2022-10-04T05:05:28.155Z,8.74
2022-10-04T05:06:28.139Z,8.77
2022-10-04T05:07:28.385Z,8.79
2022-10-04T05:08:28.371Z,8.72
2022-10-04T05:09:28.433Z,8.72
2022-10-04T05:10:28.344Z,8.72
2022-10-04T05:11:27.819Z,8.85
2022-10-04T05:12:27.808Z,8.82
2022-10-04T05:13:28.045Z,8.86
2022-10-04T05:14:28.295Z,8.8
2022-10-04T05:15:28.282Z,8.76
2022-10-04T05:16:28.224Z,8.85
2022-10-04T05:17:27.994Z,8.87
2022-10-04T05:18:28.265Z,8.86
2022-10-04T05:19:27.722Z,8.85
2022-10-04T05:20:28.212Z,8.82
2022-10-04T05:21:27.688Z,8.79
2022-10-04T05:22:28.185Z,8.82
2022-10-04T05:23:27.915Z,8.86
2022-10-04T05:24:28.158Z,8.85
2022-10-04T05:25:28.225Z,8.85
2022-10-04T05:26:27.876Z,8.85
2022-10-04T05:27:27.615Z,8.8
2022-10-04T05:28:28.295Z,8.86
2022-10-04T05:29:28.107Z,8.92
2022-10-04T05:30:27.569Z,8.86
2022-10-04T05:31:28.297Z,8.89
2022-10-04T05:32:28.062Z,8.82
2022-10-04T05:33:30.684Z,8.92
2022-10-04T05:34:28.041Z,8.94
2022-10-04T05:35:27.764Z,8.98
2022-10-04T05:36:27.997Z,8.86
2022-10-04T05:37:27.736Z,8.97
2022-10-04T05:38:27.716Z,8.94
2022-10-04T05:39:27.963Z,9.01
2022-10-04T05:40:27.435Z,9
2022-10-04T05:41:33.571Z,9
2022-10-04T05:42:27.663Z,8.95
2022-10-04T05:43:27.650Z,8.92
2022-10-04T05:44:27.903Z,9.01
2022-10-04T05:45:27.904Z,8.89
2022-10-04T05:46:27.367Z,8.97
2022-10-04T05:47:27.859Z,8.94
2022-10-04T05:48:27.595Z,8.92
2022-10-04T05:49:27.572Z,8.95
2022-10-04T05:50:27.563Z,8.89
2022-10-04T05:51:27.802Z,8.98
2022-10-04T05:52:27.530Z,9.03
2022-10-04T05:53:27.531Z,9
2022-10-04T05:54:27.761Z,8.98
2022-10-04T05:55:27.513Z,8.92
2022-10-04T05:56:27.745Z,9.03
2022-10-04T05:57:27.878Z,8.95
2022-10-04T05:58:27.736Z,8.98
2022-10-04T05:59:27.184Z,8.98
2022-10-04T06:00:27.174Z,9.08
2022-10-04T06:01:27.906Z,9.03
2022-10-04T06:02:27.926Z,9.03
2022-10-04T06:03:27.649Z,9.05
2022-10-04T06:04:27.376Z,9.09
2022-10-04T06:05:32.528Z,9
2022-10-04T06:06:27.095Z,9.08
2022-10-04T06:07:27.333Z,9.14
2022-10-04T06:08:27.072Z,9
2022-10-04T06:09:27.056Z,9.12
2022-10-04T06:10:27.345Z,9.14
2022-10-04T06:11:27.540Z,9.11
2022-10-04T06:12:27.528Z,9.16
2022-10-04T06:13:27.629Z,9.24
2022-10-04T06:14:27.261Z,9.17
2022-10-04T06:15:27.227Z,9.21
2022-10-04T06:16:27.397Z,9.37
2022-10-04T06:17:27.465Z,9.32
2022-10-04T06:18:27.447Z,9.39
2022-10-04T06:19:26.928Z,9.37
2022-10-04T06:20:27.210Z,9.3
2022-10-04T06:21:27.410Z,9.3
2022-10-04T06:22:27.400Z,9.3
2022-10-04T06:23:27.125Z,9.34
2022-10-04T06:24:31.327Z,9.52
2022-10-04T06:25:27.099Z,9.48
2022-10-04T06:26:27.348Z,9.42
2022-10-04T06:27:27.334Z,9.53
2022-10-04T06:28:27.278Z,9.55
2022-10-04T06:29:27.401Z,9.55
2022-10-04T06:30:27.232Z,9.52
2022-10-04T06:31:27.020Z,9.57
2022-10-04T06:32:26.759Z,9.48
2022-10-04T06:33:27.277Z,9.56
2022-10-04T06:34:27.238Z,9.6
2022-10-04T06:35:27.224Z,9.7
2022-10-04T06:36:26.957Z,9.66
2022-10-04T06:37:26.945Z,9.74
2022-10-04T06:38:27.187Z,9.81
2022-10-04T06:39:27.170Z,9.82
2022-10-04T06:40:26.652Z,9.84
2022-10-04T06:41:27.153Z,9.85
2022-10-04T06:42:27.139Z,9.93
2022-10-04T06:43:27.125Z,9.95
2022-10-04T06:44:27.111Z,9.98
2022-10-04T06:45:27.169Z,10.02
2022-10-04T06:46:27.451Z,10.08
2022-10-04T06:47:26.561Z,10.05
2022-10-04T06:48:27.061Z,10.17
2022-10-04T06:49:26.799Z,10.13
2022-10-04T06:50:27.041Z,10.28
2022-10-04T06:51:27.022Z,10.21
2022-10-04T06:52:27.014Z,10.29
2022-10-04T06:53:27.010Z,10.35
2022-10-04T06:54:26.476Z,10.39
2022-10-04T06:55:26.973Z,10.44
2022-10-04T06:56:26.983Z,10.41
2022-10-04T06:57:26.955Z,10.44
2022-10-04T06:58:26.683Z,10.41
2022-10-04T06:59:26.933Z,10.47
2022-10-04T07:00:27.016Z,10.52
2022-10-04T07:01:27.208Z,10.58
2022-10-04T07:02:26.902Z,10.49
2022-10-04T07:03:26.627Z,10.54
2022-10-04T07:04:26.624Z,10.54
2022-10-04T07:05:26.342Z,10.58
2022-10-04T07:06:26.594Z,10.58
2022-10-04T07:07:26.868Z,10.66
2022-10-04T07:08:26.305Z,10.61
2022-10-04T07:09:26.554Z,10.67
2022-10-04T07:10:26.385Z,10.67
2022-10-04T07:11:26.783Z,10.65
2022-10-04T07:12:26.519Z,10.73
2022-10-04T07:13:26.508Z,10.79
2022-10-04T07:14:26.763Z,10.76
2022-10-04T07:15:26.880Z,10.87
2022-10-04T07:16:27.109Z,10.84
2022-10-04T07:17:26.787Z,10.87
2022-10-04T07:18:26.695Z,10.88
2022-10-04T07:19:26.691Z,10.95
2022-10-04T07:20:26.239Z,10.9
2022-10-04T07:21:26.672Z,10.88
2022-10-04T07:22:26.649Z,10.94
2022-10-04T07:23:32.355Z,10.95
2022-10-04T07:24:26.372Z,11.06
2022-10-04T07:25:26.360Z,11.02
2022-10-04T07:26:26.359Z,11.13
2022-10-04T07:27:26.607Z,11.02
2022-10-04T07:28:26.650Z,11.08
2022-10-04T07:29:26.317Z,11.1
2022-10-04T07:30:26.309Z,11.09
2022-10-04T07:31:26.749Z,11.23
2022-10-04T07:32:26.282Z,11.33
2022-10-04T07:33:26.598Z,11.28
2022-10-04T07:34:26.268Z,11.31
2022-10-04T07:35:26.508Z,11.31
2022-10-04T07:36:26.902Z,11.42
2022-10-04T07:37:25.970Z,11.41
2022-10-04T07:38:26.471Z,11.48
2022-10-04T07:39:26.203Z,11.56
2022-10-04T07:40:25.938Z,11.56
2022-10-04T07:41:26.181Z,11.57
2022-10-04T07:42:25.912Z,11.61
2022-10-04T07:43:26.409Z,11.68
2022-10-04T07:44:26.399Z,11.66
2022-10-04T07:45:30.418Z,11.68
2022-10-04T07:46:26.370Z,11.71
2022-10-04T07:47:26.373Z,11.81
2022-10-04T07:48:26.358Z,11.79
2022-10-04T07:49:26.419Z,11.86
2022-10-04T07:50:26.165Z,11.84
2022-10-04T07:51:26.069Z,11.91
2022-10-04T07:52:25.802Z,12.03
2022-10-04T07:53:26.050Z,11.94
2022-10-04T07:54:26.032Z,11.95
2022-10-04T07:55:26.019Z,12.04
2022-10-04T07:56:26.019Z,12
2022-10-04T07:57:26.261Z,12.11
2022-10-04T07:58:25.985Z,12.13
2022-10-04T07:59:25.975Z,12.13
2022-10-04T08:00:25.817Z,12.15
2022-10-04T08:01:26.239Z,12.2
2022-10-04T08:02:31.679Z,12.2
2022-10-04T08:03:26.164Z,12.33
2022-10-04T08:04:26.405Z,12.34
2022-10-04T08:05:26.631Z,12.47
2022-10-04T08:06:26.398Z,12.47
2022-10-04T08:07:26.383Z,12.43
2022-10-04T08:08:26.373Z,12.53
2022-10-04T08:09:25.849Z,12.41
2022-10-04T08:10:26.359Z,12.43
2022-10-04T08:11:25.827Z,12.48
2022-10-04T08:12:26.068Z,12.63
2022-10-04T08:13:26.055Z,12.62
2022-10-04T08:14:26.055Z,12.56
2022-10-04T08:15:25.780Z,12.58
2022-10-04T08:16:26.468Z,12.58
2022-10-04T08:17:26.015Z,12.66
2022-10-04T08:18:26.013Z,12.47
2022-10-04T08:19:25.994Z,12.62
2022-10-04T08:20:25.739Z,12.61
2022-10-04T08:21:26.528Z,12.52
2022-10-04T08:22:25.714Z,12.38
2022-10-04T08:23:26.213Z,12.51
2022-10-04T08:24:25.946Z,12.41
2022-10-04T08:25:25.937Z,12.47
2022-10-04T08:26:25.955Z,12.4
2022-10-04T08:27:26.168Z,12.4
2022-10-04T08:28:26.091Z,12.56
2022-10-04T08:29:25.640Z,12.56
2022-10-04T08:30:25.628Z,12.51
2022-10-04T08:31:26.451Z,12.51
2022-10-04T08:32:25.881Z,12.55
2022-10-04T08:33:25.854Z,12.52
2022-10-04T08:34:26.111Z,12.66
2022-10-04T08:35:26.120Z,12.58
2022-10-04T08:36:26.080Z,12.61
2022-10-04T08:37:26.153Z,12.7
2022-10-04T08:38:25.574Z,12.71
2022-10-04T08:39:25.798Z,12.74
2022-10-04T08:40:26.118Z,12.74
2022-10-04T08:41:25.520Z,12.92
2022-10-04T08:42:26.028Z,12.91
2022-10-04T08:43:26.007Z,12.95
2022-10-04T08:44:26.007Z,12.96
2022-10-04T08:45:25.476Z,13.1
2022-10-04T08:46:25.958Z,13.21
2022-10-04T08:47:26.743Z,13.27
2022-10-04T08:48:25.972Z,13.24
2022-10-04T08:49:25.692Z,13.2
2022-10-04T08:50:25.694Z,13.25
2022-10-04T08:51:25.418Z,13.39
2022-10-04T08:52:25.680Z,13.51
2022-10-04T08:53:26.125Z,13.5
2022-10-04T08:54:25.647Z,13.57
2022-10-04T08:55:25.635Z,13.72
2022-10-04T08:56:25.880Z,13.81
2022-10-04T08:57:25.618Z,13.81
2022-10-04T08:58:25.874Z,13.86
2022-10-04T08:59:25.865Z,13.94
2022-10-04T09:00:25.594Z,13.95
2022-10-04T09:01:25.792Z,14.01
2022-10-04T09:02:25.544Z,14.05
2022-10-04T09:03:29.629Z,14.01
2022-10-04T09:04:25.561Z,14.06
2022-10-04T09:05:25.544Z,14.02
2022-10-04T09:06:25.275Z,13.95
2022-10-04T09:07:25.781Z,13.91
2022-10-04T09:08:25.767Z,13.93
2022-10-04T09:09:25.834Z,13.94
2022-10-04T09:10:29.877Z,13.99
2022-10-04T09:11:25.489Z,13.95
2022-10-04T09:12:25.477Z,13.93
2022-10-04T09:13:25.474Z,13.99
2022-10-04T09:14:25.721Z,13.95
2022-10-04T09:15:25.199Z,14.05
2022-10-04T09:16:25.605Z,14.05
2022-10-04T09:17:27.289Z,14.09
2022-10-04T09:18:25.177Z,14.09
2022-10-04T09:19:25.427Z,14.09
2022-10-04T09:20:43.096Z,14.08
2022-10-04T09:21:25.405Z,14.12
2022-10-04T09:22:25.652Z,14.13
2022-10-04T09:23:25.655Z,14.08
2022-10-04T09:24:25.377Z,14.09
2022-10-04T09:25:25.747Z,14.23
2022-10-04T09:26:25.102Z,14.16
2022-10-04T09:27:57.878Z,14.28
2022-10-04T09:28:25.946Z,14.3
2022-10-04T09:29:25.592Z,14.28
2022-10-04T09:30:25.336Z,14.31
2022-10-04T09:31:25.570Z,14.38
2022-10-04T09:32:25.309Z,14.41
2022-10-04T09:33:25.435Z,14.44
2022-10-04T09:34:25.288Z,14.52
2022-10-04T09:35:25.277Z,14.51
2022-10-04T09:36:25.521Z,14.48
2022-10-04T09:37:25.267Z,14.51
2022-10-04T09:38:25.504Z,14.48
2022-10-04T09:39:40.627Z,14.52
2022-10-04T09:40:25.227Z,14.46
2022-10-04T09:41:25.717Z,14.48
2022-10-04T09:42:25.217Z,14.53
2022-10-04T09:43:25.219Z,14.44
2022-10-04T09:44:25.203Z,14.53
2022-10-04T09:45:25.447Z,14.66
2022-10-04T09:46:25.333Z,14.66
2022-10-04T09:47:25.186Z,14.69
2022-10-04T09:48:25.423Z,14.67
2022-10-04T09:49:25.160Z,14.71
2022-10-04T09:50:24.894Z,14.8
2022-10-04T09:51:25.146Z,14.85
2022-10-04T09:52:25.136Z,14.85
2022-10-04T09:53:26.007Z,14.83
2022-10-04T09:54:25.740Z,14.83
2022-10-04T09:55:25.728Z,14.89
2022-10-04T09:56:25.721Z,14.89
2022-10-04T09:57:26.112Z,14.94
2022-10-04T09:58:25.707Z,14.89
2022-10-04T09:59:25.953Z,15.01
2022-10-04T10:00:25.733Z,15.08
2022-10-04T10:01:25.879Z,15.13
2022-10-04T10:02:25.806Z,15.22
2022-10-04T10:03:25.998Z,15.2
2022-10-04T10:04:25.414Z,15.25
2022-10-04T10:05:25.651Z,15.26
2022-10-04T10:06:25.639Z,15.19
2022-10-04T10:07:25.891Z,15.26
2022-10-04T10:08:30.904Z,15.26
2022-10-04T10:09:25.616Z,15.22
2022-10-04T10:10:25.867Z,15.26
2022-10-04T10:11:25.864Z,15.23
2022-10-04T10:12:25.601Z,15.22
2022-10-04T10:13:28.821Z,15.13
2022-10-04T10:14:25.583Z,15.12
2022-10-04T10:15:26.295Z,15.15
2022-10-04T10:16:26.687Z,15.15
2022-10-04T10:17:26.528Z,15.13
2022-10-04T10:18:26.518Z,15.08
2022-10-04T10:19:31.990Z,15.05
2022-10-04T10:20:26.247Z,15.08
2022-10-04T10:21:26.242Z,15.15
2022-10-04T10:22:26.486Z,15.18
2022-10-04T10:23:26.223Z,15.01
2022-10-04T10:24:26.480Z,15.07
2022-10-04T10:25:26.467Z,15.04
2022-10-04T10:26:26.208Z,15.12
2022-10-04T10:27:26.197Z,15.3
2022-10-04T10:28:26.731Z,15.44
2022-10-04T10:29:26.595Z,15.53
2022-10-04T10:30:26.179Z,15.65
2022-10-04T10:31:26.622Z,15.89
2022-10-04T10:32:26.166Z,15.92
2022-10-04T10:33:26.142Z,16.07
2022-10-04T10:34:26.396Z,16.16
2022-10-04T10:35:26.135Z,16.21
2022-10-04T10:36:26.383Z,16.18
2022-10-04T10:37:26.369Z,16.16
2022-10-04T10:38:26.358Z,16.27
2022-10-04T10:39:26.357Z,16.34
2022-10-04T10:40:26.105Z,16.33
2022-10-04T10:41:26.088Z,16.4
2022-10-04T10:42:26.084Z,16.54
2022-10-04T10:43:26.327Z,16.37
2022-10-04T10:44:26.062Z,16.44
2022-10-04T10:45:26.463Z,16.33
2022-10-04T10:46:26.266Z,16.45
2022-10-04T10:47:26.043Z,16.62
2022-10-04T10:48:25.771Z,16.63
2022-10-04T10:49:27.090Z,16.65
2022-10-04T10:50:26.271Z,16.48
2022-10-04T10:51:26.017Z,16.45
2022-10-04T10:52:26.010Z,16.36
2022-10-04T10:53:25.991Z,16.33
2022-10-04T10:54:26.304Z,16.26
2022-10-04T10:55:26.246Z,16.32
2022-10-04T10:56:31.416Z,16.29
2022-10-04T10:57:26.216Z,16.3
2022-10-04T10:58:25.948Z,16.29
2022-10-04T10:59:26.920Z,16.26
2022-10-04T11:00:26.909Z,16.21
2022-10-04T11:01:27.524Z,16.29
2022-10-04T11:03:03.210Z,16.18
2022-10-04T11:03:35.286Z,16.21
2022-10-04T11:04:29.152Z,16.16
2022-10-04T11:05:28.874Z,16.06
2022-10-04T11:06:28.609Z,16.07
2022-10-04T11:07:28.855Z,16.06
2022-10-04T11:08:28.851Z,15.99
2022-10-04T11:09:28.839Z,15.92
2022-10-04T11:10:28.836Z,15.88
2022-10-04T11:11:28.829Z,15.96
2022-10-04T11:12:28.558Z,16.04
2022-10-04T11:13:29.075Z,16.11
2022-10-04T11:14:29.061Z,16.02
2022-10-04T11:15:29.055Z,16
2022-10-04T11:16:29.166Z,16.08
2022-10-04T11:17:28.871Z,16.1
2022-10-04T11:18:29.029Z,15.91
2022-10-04T11:19:28.767Z,15.83
2022-10-04T11:20:28.765Z,15.88
2022-10-04T11:21:28.497Z,15.81
2022-10-04T11:22:28.745Z,15.98
2022-10-04T11:23:28.988Z,15.88
2022-10-04T11:24:28.467Z,15.95
2022-10-04T11:25:28.972Z,15.96
2022-10-04T11:26:28.456Z,15.93
2022-10-04T11:27:28.959Z,15.93
2022-10-04T11:28:28.912Z,15.81
2022-10-04T11:29:28.686Z,15.86
2022-10-04T11:30:28.432Z,15.83
2022-10-04T11:31:29.101Z,15.89
2022-10-04T11:32:28.948Z,15.78
2022-10-04T11:33:28.935Z,15.75
2022-10-04T11:34:28.398Z,15.91
2022-10-04T11:35:28.897Z,15.86
2022-10-04T11:36:28.373Z,15.83
2022-10-04T11:37:28.890Z,15.84
2022-10-04T11:38:28.361Z,15.91
2022-10-04T11:39:28.872Z,15.88
2022-10-04T11:40:28.613Z,15.91
2022-10-04T11:41:28.587Z,15.91
2022-10-04T11:42:28.596Z,15.84
2022-10-04T11:43:28.328Z,15.81
2022-10-04T11:44:28.827Z,15.93
2022-10-04T11:45:28.555Z,15.86
2022-10-04T11:46:29.038Z,15.93
2022-10-04T11:47:28.541Z,15.88
2022-10-04T11:48:28.820Z,15.83
2022-10-04T11:49:28.830Z,15.83
2022-10-04T11:50:28.528Z,15.8
2022-10-04T11:51:28.762Z,15.73
2022-10-04T11:52:28.503Z,15.73
2022-10-04T11:53:28.495Z,15.74
2022-10-04T11:54:28.497Z,15.73
2022-10-04T11:55:28.502Z,15.77
2022-10-04T11:56:28.472Z,15.67
2022-10-04T11:57:28.719Z,15.62
2022-10-04T11:58:28.716Z,15.6
2022-10-04T11:59:28.193Z,15.7
2022-10-04T12:00:28.697Z,15.62
2022-10-04T12:01:28.435Z,15.6
2022-10-04T12:02:28.442Z,15.71
2022-10-04T12:03:28.932Z,15.59
2022-10-04T12:04:28.664Z,15.51
2022-10-04T12:05:28.455Z,15.55
2022-10-04T12:06:28.393Z,15.6
2022-10-04T12:07:28.641Z,15.53
2022-10-04T12:08:28.122Z,15.55
2022-10-04T12:09:28.369Z,15.65
2022-10-04T12:10:28.106Z,15.63
2022-10-04T12:11:28.359Z,15.63
2022-10-04T12:12:28.345Z,15.59
2022-10-04T12:13:28.350Z,15.52
2022-10-04T12:14:28.332Z,15.6
2022-10-04T12:15:28.327Z,15.65
2022-10-04T12:16:28.483Z,15.71
2022-10-04T12:17:28.304Z,15.74
2022-10-04T12:18:28.572Z,15.6
2022-10-04T12:19:28.290Z,15.62
2022-10-04T12:20:28.335Z,15.63
2022-10-04T12:21:28.592Z,15.62
2022-10-04T12:22:28.264Z,15.65
2022-10-04T12:23:28.004Z,15.63
2022-10-04T12:24:28.505Z,15.62
2022-10-04T12:25:28.499Z,15.6
2022-10-04T12:26:28.232Z,15.73
2022-10-04T12:27:28.480Z,15.7
2022-10-04T12:28:28.546Z,15.67
2022-10-04T12:29:27.953Z,15.7
2022-10-04T12:30:28.197Z,15.58
2022-10-04T12:31:28.369Z,15.59
2022-10-04T12:32:27.931Z,15.51
2022-10-04T12:33:28.471Z,15.53
2022-10-04T12:34:28.440Z,15.52
2022-10-04T12:35:27.908Z,15.52
2022-10-04T12:36:28.328Z,15.45
2022-10-04T12:37:28.282Z,15.47
2022-10-04T12:38:28.389Z,15.49
2022-10-04T12:39:28.127Z,15.58
2022-10-04T12:40:27.863Z,15.53
2022-10-04T12:41:28.111Z,15.59
2022-10-04T12:42:32.625Z,15.52
2022-10-04T12:43:27.843Z,15.49
2022-10-04T12:44:28.090Z,15.58
2022-10-04T12:45:28.603Z,15.62
2022-10-04T12:46:28.076Z,15.53
2022-10-04T12:47:28.077Z,15.56
2022-10-04T12:48:28.058Z,15.52
2022-10-04T12:49:28.319Z,15.58
2022-10-04T12:50:27.783Z,15.63
2022-10-04T12:51:28.291Z,15.62
2022-10-04T12:52:28.320Z,15.6
2022-10-04T12:53:28.071Z,15.59
2022-10-04T12:54:28.265Z,15.63
2022-10-04T12:55:28.002Z,15.59
2022-10-04T12:56:28.254Z,15.62
2022-10-04T12:57:28.020Z,15.58
2022-10-04T12:58:27.730Z,15.67
2022-10-04T12:59:27.969Z,15.7
2022-10-04T13:00:27.957Z,15.67
2022-10-04T13:01:28.461Z,15.6
2022-10-04T13:02:28.548Z,15.65
2022-10-04T13:03:27.940Z,15.65
2022-10-04T13:04:27.826Z,15.71
2022-10-04T13:05:27.928Z,15.77
2022-10-04T13:06:28.177Z,15.78
2022-10-04T13:07:28.163Z,15.7
2022-10-04T13:08:28.182Z,15.68
2022-10-04T13:09:27.947Z,15.73
2022-10-04T13:10:29.980Z,15.71
2022-10-04T13:11:28.131Z,15.7
2022-10-04T13:12:27.867Z,15.55
2022-10-04T13:13:27.606Z,15.71
2022-10-04T13:14:28.114Z,15.7
2022-10-04T13:15:28.427Z,15.7
2022-10-04T13:17:41.180Z,15.62
2022-10-04T13:18:40.205Z,15.59
2022-10-04T13:19:40.466Z,15.59
2022-10-04T13:20:40.194Z,15.63
2022-10-04T13:21:40.204Z,15.58
2022-10-04T13:23:00.991Z,15.73
2022-10-04T13:23:40.724Z,15.73